Search for airport 
image banner adimage banner ad
image banner ad

SBPK - Pelotas

Located in Pelotas, Brazil

ICAO - SBPK, IATA - PET

Data provided by Airmate  

General information

Coordinates: S31°42'58" W52°19'52"
Elevation is 59 feet MSL.
Magnetic variation is -15° East
View others Airports in Rio Grande do Sul

Operational data

Open for public use
Current time UTC:
Current local time:
Weather
METAR: SBPK 011115Z 09011KT 9999 OVC032 21/15 Q1018
TAF: TAF SBPK 010300Z 0106/0206 09008KT 9999 SCT020 TN19/0108Z TX24/0117Z BECMG 0110/0112 SCT030 BECMG 0114/0116 06010KT BKN035 BECMG 0120/0122 SCT040 RMK PEO
View NOTAMs / SUP AIP / TFR affecting this airport [VIEW]
Communications frequencies: [VIEW]

Runways:

RWY identifierQFULength (ft)Width (ft)SurfaceLDA (ft)
0651°6496138
24231°6496138
15142°4035125
33322°4035125

Airport contact information

Address: Pelotas Brazil

Satellite view of SBPK